首页
METAR-TAF:

METAR-TAF

机场 :

羅蘭加洛斯機場

圣但尼, 留尼汪岛

纬度: 20-53S, 经度: 055-31E, 海拔: 21米

当前天气观测

该预报发布于28分钟前的01:00 UTC
风速5节,风向
温度 18°C
湿度 73%
气压 1018 hPa
能见度10公里或以上
1500米以下无云,无积雨云

METAR: FMEE 240100Z AUTO 19005KT CAVOK 18/13 Q1018 NOSIG

时间: 05:28 (01:28 UTC)

预报

该预报发布于2小时和28分钟前的23:00 UTC
预报有效从24日的 00点(UTC)到 25日的 06点(UTC)
风速5节,风向南转南东
能见度10公里或以上
少量云层高于4000英尺
成为
从 24日的 04点(UTC)到 24日的 06点(UTC)
风速10节,风向西转西北
成为
从 24日的 11点(UTC)到 24日的 13点(UTC)
风速12节,风向
成为
从 24日的 13点(UTC)到 24日的 15点(UTC)
风速5节,风向东转东南

TAF: FMEE 232300Z 2400/2506 16005KT 9999 FEW040 BECMG 2404/2406 30010KT BECMG 2411/2413 10012KT BECMG 2413/2415 12005KT

超过4000个机场的气象观测和天气预报(METAR&TAF报告)。

可查询的气象台以黄色和红色小点在地图上表示。

将鼠标移到小点上方,可查看气象台名称。

然后点击查看天气观测和预报。

如需切换地图:点击带黑十字的绿色按钮放大地图;点击带横线的绿色按钮缩小地图;或者点击绿色箭头查看邻近地区的地图。


METAR-TAF: